Allenport, Pennsylvania
Current Conditions -  °F | °C
As of 2:53 PM on Sunday 21 Dec 2014 (Local Time) from KAGC Reporting Station
Haze Haze  
Wind Chill: 34°   Ceiling: 3900
Heat Index: 34°   Visibility: 6mi
Dew Point: 20°   Wind: 3mph
Humidity: 56%   Direction: 20°NNE
Pressure: 30.22"   Gusts: NA
Location:  40.1°N, 79.85°W
Report Text: KAGC 211953Z 02003KT 6SM HZ OVC039 01/M07 A3022 RMK AO2 SLP252 T00111067
Loading
Personal Weather Stations






























Interactive Weather Map New forecast layout! Learn more

10-Day Weather Forecast

Advertisements
Track Severe Weather on mobile